Time;durP1;ratioP1;P1;durP2;ratioP2;P2;SDS_P1;SDS_P2;PMS_P1;PMS_P2;Temp;Humidity;BMP_temperature;BMP_pressure;BME280_temperature;BME280_humidity;BME280_pressure;Samples;Min_cycle;Max_cycle;Signal;HPM_P1;HPM_P2
2021/02/16 00:00:42;;;;;;;61.1;33.9;;;;;;;-9.48;85.40332;99998.41;;;;
2021/02/16 00:10:39;;;;;;;69.7;40.6;;;;;;;-9.38;85.07031;99997.39;;;;
2021/02/16 00:20:35;;;;;;;76;45;;;;;;;-9.22;84.7793;99988.9;;;;
2021/02/16 00:30:32;;;;;;;62.4;33.4;;;;;;;-9.1;84.33008;99963.41;;;;
2021/02/16 00:40:29;;;;;;;84.7;51.2;;;;;;;-9.15;84.14746;99952.58;;;;
2021/02/16 00:50:25;;;;;;;71.7;43.9;;;;;;;-9.11;84.0166;99917.38;;;;
2021/02/16 01:00:22;;;;;;;73.6;38.2;;;;;;;-9.15;84.57715;99889.92;;;;
2021/02/16 01:10:19;;;;;;;76.1;43.9;;;;;;;-8.91;83.34863;99866.63;;;;
2021/02/16 01:20:16;;;;;;;67.2;43.6;;;;;;;-8.94;82.83789;99849.47;;;;
2021/02/16 01:30:12;;;;;;;123.7;60.8;;;;;;;-9.16;84.00781;99839.5;;;;
2021/02/16 01:40:09;;;;;;;88.6;48.8;;;;;;;-9.17;84.65918;99829.23;;;;
2021/02/16 01:50:05;;;;;;;120.1;65;;;;;;;-9.18;83.79785;99823.18;;;;
2021/02/16 02:00:02;;;;;;;95.4;64.5;;;;;;;-9.2;83.70898;99809.47;;;;
2021/02/16 02:09:59;;;;;;;111.7;65.7;;;;;;;-8.99;82.60156;99804.73;;;;
2021/02/16 02:19:56;;;;;;;114.5;63.7;;;;;;;-9.2;83.47363;99784.16;;;;
2021/02/16 02:29:59;;;;;;;102.5;59;;;;;;;-9.44;84.78809;99749.27;;;;
2021/02/16 02:39:49;;;;;;;99.8;57.5;;;;;;;-9.32;83.73926;99737.59;;;;
2021/02/16 02:49:46;;;;;;;114.7;61.9;;;;;;;-9.03;83.36621;99713.8;;;;
2021/02/16 02:59:42;;;;;;;107.3;60.4;;;;;;;-9.12;83.72656;99694.64;;;;
2021/02/16 03:09:50;;;;;;;105;58.2;;;;;;;-9.04;83.6543;99691.26;;;;
2021/02/16 03:29:32;;;;;;;91.7;48.1;;;;;;;-8.74;82.38184;99662.83;;;;
2021/02/16 03:39:29;;;;;;;80.2;46.2;;;;;;;-8.76;82.02246;99667.41;;;;
2021/02/16 03:49:26;;;;;;;97.1;56.4;;;;;;;-9;82.38379;99677.75;;;;
2021/02/16 03:59:22;;;;;;;91.2;50.4;;;;;;;-9.18;83.88379;99674.38;;;;
2021/02/16 04:09:19;;;;;;;83.6;46.9;;;;;;;-8.94;83.16895;99668.45;;;;
2021/02/16 04:19:17;;;;;;;77.9;45.7;;;;;;;-8.85;82.96094;99663.1;;;;
2021/02/16 04:29:13;;;;;;;83.2;44.4;;;;;;;-9.16;83.84473;99653.36;;;;
2021/02/16 04:39:09;;;;;;;95.5;54.8;;;;;;;-9.17;83.04785;99633.44;;;;
2021/02/16 04:49:06;;;;;;;71.4;42;;;;;;;-9.26;82.89063;99632.56;;;;
2021/02/16 04:59:03;;;;;;;92.5;45.8;;;;;;;-9.42;82.50586;99622.88;;;;
2021/02/16 05:08:59;;;;;;;65.4;41.4;;;;;;;-9.64;82.16113;99628.61;;;;
2021/02/16 05:28:55;;;;;;;87.7;44.8;;;;;;;-9.7;83.26465;99603.14;;;;
2021/02/16 05:38:50;;;;;;;88.3;43.5;;;;;;;-9.71;83.76758;99593.67;;;;
2021/02/16 05:48:46;;;;;;;80.4;41.1;;;;;;;-9.38;82.91211;99598.11;;;;
2021/02/16 05:58:43;;;;;;;76.9;40.1;;;;;;;-9.56;83.41113;99573.88;;;;
2021/02/16 06:08:40;;;;;;;108.7;50;;;;;;;-9.41;83.47363;99561.9;;;;
2021/02/16 06:18:36;;;;;;;74.1;50.7;;;;;;;-8.99;83.6543;99559.28;;;;
2021/02/16 06:28:33;;;;;;;106.6;56;;;;;;;-8.74;84.16504;99541.84;;;;
2021/02/16 06:38:30;;;;;;;85.6;50.8;;;;;;;-8.24;82.36133;99537.28;;;;
2021/02/16 06:48:26;;;;;;;103.7;59.7;;;;;;;-7.72;81.80566;99523.78;;;;
2021/02/16 06:58:23;;;;;;;95.3;57.2;;;;;;;-7.2;80.37402;99532.76;;;;
2021/02/16 07:08:20;;;;;;;105.4;61.4;;;;;;;-7.42;79.97461;99520.41;;;;
2021/02/16 07:18:17;;;;;;;104.6;62.3;;;;;;;-7.12;79.97656;99528.47;;;;
2021/02/16 07:38:11;;;;;;;117.7;78.1;;;;;;;-6.78;79.59961;99498.3;;;;
2021/02/16 07:48:08;;;;;;;102.3;66.5;;;;;;;-6.12;78.35742;99507.27;;;;
2021/02/16 07:58:05;;;;;;;121.6;74.4;;;;;;;-5.13;76.28125;99506.77;;;;
2021/02/16 08:08:03;;;;;;;112.4;74;;;;;;;-5.11;74.41406;99497.72;;;;
2021/02/16 08:17:59;;;;;;;96.2;69.3;;;;;;;-4.66;73.0332;99507.11;;;;
2021/02/16 08:27:56;;;;;;;97.1;65.9;;;;;;;-4.47;72.66113;99510.09;;;;
2021/02/16 08:37:56;;;;;;;101.6;67.2;;;;;;;-4.44;73.52832;99505.27;;;;
2021/02/16 08:47:52;;;;;;;102.2;74.2;;;;;;;-4.09;73.0127;99496.45;;;;
2021/02/16 08:57:51;;;;;;;100.8;71.6;;;;;;;-4.17;74.05469;99495.8;;;;
2021/02/16 09:07:45;;;;;;;112.3;74.1;;;;;;;-3.87;73.13672;99470.9;;;;
2021/02/16 09:17:43;;;;;;;132.4;80.1;;;;;;;-3.43;71.98633;99453.89;;;;
2021/02/16 09:27:40;;;;;;;109.8;76.2;;;;;;;-2.92;70.33496;99468.3;;;;
2021/02/16 09:37:39;;;;;;;119;84.4;;;;;;;-2.48;69.00293;99466.93;;;;
2021/02/16 09:47:35;;;;;;;115.4;80.2;;;;;;;-2.41;68.62012;99442.17;;;;
2021/02/16 09:57:32;;;;;;;108.3;76;;;;;;;-1.69;67.16504;99436.78;;;;
2021/02/16 10:07:29;;;;;;;130.5;99.6;;;;;;;-1.23;65.53027;99436.63;;;;
2021/02/16 10:17:27;;;;;;;139.5;112;;;;;;;-1.04;64.50293;99427.77;;;;
2021/02/16 10:27:24;;;;;;;236.6;172.1;;;;;;;-0.75;63.49902;99407.85;;;;
2021/02/16 10:37:22;;;;;;;134;102.2;;;;;;;-0.39;63.81738;99395.77;;;;
2021/02/16 10:47:21;;;;;;;121.1;95.6;;;;;;;-0.24;64.06055;99386.45;;;;
2021/02/16 10:57:17;;;;;;;180.6;139.8;;;;;;;0.62;62.9502;99366.96;;;;
2021/02/16 11:07:15;;;;;;;119.4;89.3;;;;;;;0.76;62.47363;99352.48;;;;
2021/02/16 11:17:13;;;;;;;107.9;83.6;;;;;;;0.82;63.64551;99349.73;;;;
2021/02/16 11:27:11;;;;;;;98.7;75.5;;;;;;;1.06;63.36914;99336.53;;;;
2021/02/16 11:37:08;;;;;;;78.3;69;;;;;;;1.14;63.83594;99333.55;;;;
2021/02/16 11:47:06;;;;;;;90;65.6;;;;;;;1.43;63.80371;99317.53;;;;
2021/02/16 11:57:04;;;;;;;87.6;61.8;;;;;;;1.55;65.07227;99308.77;;;;
2021/02/16 12:07:02;;;;;;;94.9;62.6;;;;;;;1.58;66.46387;99298.48;;;;
2021/02/16 12:16:59;;;;;;;71.5;58.2;;;;;;;1.69;67.36719;99297.67;;;;
2021/02/16 12:26:57;;;;;;;80.2;65.5;;;;;;;1.31;68.0498;99297.33;;;;
2021/02/16 12:36:55;;;;;;;79.3;62.1;;;;;;;1.46;68.87012;99292.35;;;;
2021/02/16 12:46:53;;;;;;;84.4;72;;;;;;;1.4;69.91309;99280.81;;;;
2021/02/16 12:56:51;;;;;;;92.7;69.7;;;;;;;1.36;70.82324;99261.06;;;;
2021/02/16 13:06:51;;;;;;;46;33.1;;;;;;;1.12;72.41016;99259.44;;;;
2021/02/16 13:16:46;;;;;;;23.2;20.8;;;;;;;0.82;72.75586;99235.66;;;;
2021/02/16 13:26:44;;;;;;;32.8;24.1;;;;;;;0.55;73.80176;99226.49;;;;
2021/02/16 13:37:14;;;;;;;30.2;18.6;;;;;;;0.27;74.69043;99220.98;;;;
2021/02/16 13:56:45;;;;;;;28.7;19.2;;;;;;;-0.05;76.98047;99210.6;;;;
2021/02/16 14:06:41;;;;;;;30.2;22.9;;;;;;;-0.02;77.27148;99191.6;;;;
2021/02/16 14:16:33;;;;;;;30.3;19.6;;;;;;;-0.02;76.64453;99194.25;;;;
